Time;durP1;ratioP1;P1;durP2;ratioP2;P2;SDS_P1;SDS_P2;PMS_P1;PMS_P2;Temp;Humidity;BMP_temperature;BMP_pressure;BME280_temperature;BME280_humidity;BME280_pressure;Samples;Min_cycle;Max_cycle;Signal;HPM_P1;HPM_P2
2021/09/06 00:00:49;;;;;;;;;;;;;;;;;;;;;
2021/09/06 00:03:40;;;;;;;8.70;7.87;;;22.80;57.50;;;;;;4943780;29;20462;-86
2021/09/06 00:06:35;;;;;;;9.37;7.80;;;22.70;57.50;;;;;;4932311;29;20459;-85
2021/09/06 00:15:46;;;;;;;8.80;7.90;;;22.80;57.50;;;;;;4949460;29;20393;-86
2021/09/06 00:19:23;;;;;;;;;;;;;;;;;;;;;
2021/09/06 00:21:56;;;;;;;8.20;7.40;;;22.80;57.50;;;;;;4968073;29;20559;-86
2021/09/06 00:24:33;;;;;;;9.17;7.73;;;22.80;57.60;;;;;;4968687;29;20406;-86
2021/09/06 00:27:16;;;;;;;;;;;;;;;;;;;;;
2021/09/06 00:29:51;;;;;;;9.40;8.13;;;22.80;57.60;;;;;;4976579;28;20494;-86
2021/09/06 00:32:32;;;;;;;8.87;7.97;;;22.70;57.40;;;;;;4968995;28;20795;-86
2021/09/06 00:35:37;;;;;;;;;;;;;;;;;;;;;
2021/09/06 00:38:20;;;;;;;10.53;8.40;;;22.80;57.50;;;;;;4961170;28;20453;-86
2021/09/06 00:41:23;;;;;;;9.20;8.30;;;22.80;57.50;;;;;;4979983;28;20417;-86
2021/09/06 00:44:01;;;;;;;9.97;8.63;;;22.80;57.50;;;;;;4991626;28;20420;-86
2021/09/06 00:46:31;;;;;;;9.63;8.63;;;22.80;57.50;;;;;;5009509;28;20451;-86
2021/09/06 00:49:10;;;;;;;9.27;7.40;;;22.80;57.50;;;;;;5045474;28;20416;-86
2021/09/06 00:52:04;;;;;;;8.90;8.00;;;22.80;57.50;;;;;;5073336;28;20420;-86
2021/09/06 00:54:30;;;;;;;9.50;8.50;;;22.80;57.50;;;;;;5073357;28;20408;-86
2021/09/06 00:57:00;;;;;;;9.07;8.07;;;22.80;57.50;;;;;;5073825;28;20483;-86
2021/09/06 00:59:57;;;;;;;10.00;8.10;;;22.80;57.50;;;;;;5055424;28;20529;-86
2021/09/06 01:02:25;;;;;;;9.20;8.30;;;22.80;57.50;;;;;;5076653;28;20420;-86
2021/09/06 01:05:08;;;;;;;9.77;8.77;;;22.80;57.50;;;;;;5073512;28;20462;-86
2021/09/06 01:07:49;;;;;;;9.67;7.83;;;22.80;58.00;;;;;;5050895;28;20433;-86
2021/09/06 01:10:16;;;;;;;10.40;9.10;;;22.80;57.50;;;;;;5070677;28;20421;-86
2021/09/06 01:13:45;;;;;;;;;;;;;;;;;;;;;
2021/09/06 01:23:10;;;;;;;8.67;7.80;;;22.80;57.60;;;;;;5006354;28;20492;-84
2021/09/06 01:32:28;;;;;;;9.67;8.67;;;22.70;57.50;;;;;;4967468;29;20923;-86
2021/09/06 01:35:05;;;;;;;8.50;7.70;;;22.70;57.60;;;;;;4968258;28;20414;-86
2021/09/06 01:37:58;;;;;;;9.77;7.77;;;22.70;57.50;;;;;;4967691;29;20488;-86
2021/09/06 01:40:59;;;;;;;;;;;;;;;;;;;;;
2021/09/06 01:47:00;;;;;;;9.40;8.50;;;22.80;57.50;;;;;;4970115;29;20446;-86
2021/09/06 01:49:57;;;;;;;8.67;7.80;;;22.70;57.40;;;;;;4969961;28;20414;-86
2021/09/06 01:52:55;;;;;;;8.70;7.60;;;22.80;57.50;;;;;;4968949;28;20485;-86
2021/09/06 02:02:29;;;;;;;7.90;7.10;;;22.80;57.30;;;;;;5007927;28;20449;-86
2021/09/06 02:08:15;;;;;;;7.50;6.77;;;22.80;57.30;;;;;;5091724;28;20388;-86
2021/09/06 02:14:21;;;;;;;7.40;6.60;;;22.80;57.20;;;;;;5045382;28;20899;-85
2021/09/06 02:16:53;;;;;;;8.00;7.20;;;22.80;57.20;;;;;;5010440;28;20493;-85
2021/09/06 02:19:48;;;;;;;7.97;7.13;;;22.80;57.20;;;;;;5023119;28;20427;-85
2021/09/06 02:22:37;;;;;;;8.13;7.33;;;22.80;57.10;;;;;;4999572;28;20422;-85
2021/09/06 02:28:51;;;;;;;8.47;7.47;;;22.80;57.00;;;;;;4960855;28;20434;-85
2021/09/06 02:38:38;;;;;;;;;;;;;;;;;;;;;
2021/09/06 02:41:13;;;;;;;7.50;6.80;;;22.80;57.00;;;;;;4912418;29;20463;-85
2021/09/06 02:47:36;;;;;;;7.10;6.50;;;22.90;57.00;;;;;;4913129;29;20480;-85
2021/09/06 02:50:24;;;;;;;6.43;5.83;;;22.80;56.90;;;;;;4881300;29;20461;-85
2021/09/06 02:56:27;;;;;;;7.53;5.70;;;22.80;56.90;;;;;;4847089;29;20992;-85
2021/09/06 02:59:47;;;;;;;7.13;6.43;;;22.80;56.90;;;;;;4838253;29;20433;-85
2021/09/06 03:02:33;;;;;;;;;;;;;;;;;;;;;
2021/09/06 03:08:59;;;;;;;6.60;5.90;;;22.80;56.80;;;;;;4901811;29;20444;-85
2021/09/06 03:11:54;;;;;;;6.67;5.97;;;22.80;56.80;;;;;;4942478;28;21091;-85
2021/09/06 03:14:21;;;;;;;5.87;5.27;;;22.80;56.80;;;;;;4968611;28;20458;-85
2021/09/06 03:17:04;;;;;;;6.43;5.77;;;22.80;56.80;;;;;;4950044;29;20470;-85
2021/09/06 03:19:39;;;;;;;9.40;6.37;;;22.80;56.80;;;;;;4954124;29;21024;-85
2021/09/06 03:22:08;;;;;;;7.03;6.27;;;22.80;56.70;;;;;;4953886;28;20440;-85
2021/09/06 03:24:46;;;;;;;7.20;6.50;;;22.80;56.80;;;;;;4953010;29;20426;-85
2021/09/06 03:37:28;;;;;;;7.63;6.93;;;22.80;56.60;;;;;;4969546;29;20533;-85
2021/09/06 03:39:54;;;;;;;8.00;6.53;;;22.80;56.60;;;;;;4953901;29;20422;-85
2021/09/06 03:42:27;;;;;;;7.80;6.90;;;22.80;56.60;;;;;;4969692;29;20422;-85
2021/09/06 03:44:53;;;;;;;6.27;5.70;;;22.80;56.60;;;;;;4963558;28;20449;-85
2021/09/06 03:47:33;;;;;;;6.60;6.00;;;22.80;56.50;;;;;;4973105;28;20497;-85
2021/09/06 03:50:05;;;;;;;5.87;5.37;;;22.80;56.50;;;;;;4989268;28;20424;-85
2021/09/06 03:52:42;;;;;;;6.70;5.80;;;22.80;56.50;;;;;;4989286;28;20429;-85
2021/09/06 03:55:22;;;;;;;6.50;5.80;;;22.80;56.50;;;;;;4972638;28;20421;-85
2021/09/06 03:58:27;;;;;;;7.60;6.83;;;22.80;56.50;;;;;;4986950;28;20464;-85
2021/09/06 04:00:59;;;;;;;6.33;5.73;;;22.80;56.40;;;;;;4972730;28;20473;-85
2021/09/06 04:03:36;;;;;;;6.50;5.90;;;22.80;56.40;;;;;;4957201;28;20417;-85
2021/09/06 04:06:05;;;;;;;6.57;6.00;;;22.80;56.40;;;;;;4972215;28;20409;-85
2021/09/06 04:08:46;;;;;;;6.50;5.63;;;22.80;56.40;;;;;;5010077;28;20502;-85
2021/09/06 04:11:14;;;;;;;6.30;5.70;;;22.80;56.30;;;;;;5012431;28;20427;-85
2021/09/06 04:13:44;;;;;;;7.90;6.60;;;22.80;56.40;;;;;;5011971;28;20451;-85
2021/09/06 04:16:19;;;;;;;7.70;6.90;;;22.80;56.30;;;;;;5027910;28;20497;-85
2021/09/06 04:19:09;;;;;;;7.40;6.60;;;22.80;56.30;;;;;;5011497;28;20414;-85
2021/09/06 04:21:38;;;;;;;7.10;6.50;;;22.80;56.20;;;;;;5041586;28;20418;-85
2021/09/06 04:24:28;;;;;;;;;;;;;;;;;;;;;
2021/09/06 04:27:09;;;;;;;6.50;5.90;;;22.80;56.20;;;;;;5068336;28;20559;-85
2021/09/06 04:29:44;;;;;;;8.50;7.10;;;22.80;56.80;;;;;;5069483;28;20878;-85
2021/09/06 04:32:20;;;;;;;6.63;5.93;;;22.80;56.30;;;;;;5050487;28;20493;-85
2021/09/06 04:34:53;;;;;;;6.20;5.60;;;22.80;56.30;;;;;;5050921;28;20425;-85
2021/09/06 04:37:31;;;;;;;6.50;5.90;;;22.80;56.30;;;;;;5051406;28;20453;-85
2021/09/06 04:40:07;;;;;;;5.80;5.30;;;22.80;56.30;;;;;;5050925;28;20433;-85
2021/09/06 04:42:45;;;;;;;6.37;5.57;;;22.80;56.30;;;;;;5068479;28;20398;-85
2021/09/06 04:49:24;;;;;;;6.90;6.20;;;22.80;56.20;;;;;;4988394;28;20464;-85
2021/09/06 04:52:01;;;;;;;6.40;5.80;;;22.80;56.20;;;;;;4988206;28;20958;-85
2021/09/06 04:54:32;;;;;;;6.30;5.70;;;22.80;56.30;;;;;;4970914;28;20475;-85
2021/09/06 04:57:03;;;;;;;6.63;6.03;;;22.80;56.30;;;;;;4972252;28;20453;-85
2021/09/06 05:03:07;;;;;;;6.87;5.63;;;22.80;56.20;;;;;;4893159;29;20420;-85
2021/09/06 05:05:34;;;;;;;6.20;5.17;;;22.80;56.20;;;;;;4891795;29;20426;-85
2021/09/06 05:08:16;;;;;;;7.23;6.40;;;22.80;56.20;;;;;;4892022;29;20449;-85
2021/09/06 05:11:32;;;;;;;;;;;;;;;;;;;;;
2021/09/06 05:14:29;;;;;;;;;;;;;;;;;;;;;
2021/09/06 05:17:25;;;;;;;6.57;5.97;;;22.90;56.20;;;;;;4889643;29;20557;-87
2021/09/06 05:20:07;;;;;;;;;;;;;;;;;;;;;
2021/09/06 05:22:43;;;;;;;6.23;5.63;;;22.80;56.20;;;;;;4892550;29;20439;-85
2021/09/06 05:25:29;;;;;;;6.57;5.97;;;22.80;56.10;;;;;;4934688;29;20421;-87
2021/09/06 05:31:29;;;;;;;7.43;6.73;;;22.90;56.20;;;;;;4968878;29;20397;-85
2021/09/06 05:45:08;;;;;;;7.60;6.37;;;22.80;56.10;;;;;;4969267;29;20477;-86
2021/09/06 05:48:28;;;;;;;7.07;6.13;;;22.80;56.10;;;;;;4950866;29;20418;-86
2021/09/06 05:54:57;;;;;;;;;;;;;;;;;;;;;
2021/09/06 05:57:45;;;;;;;6.97;6.17;;;22.80;56.10;;;;;;4973521;28;20505;-85
2021/09/06 06:24:11;;;;;;;;;;;;;;;;;;;;;
2021/09/06 06:26:49;;;;;;;6.97;6.27;;;22.90;56.20;;;;;;4869998;29;20498;-86
2021/09/06 06:33:49;;;;;;;7.00;6.30;;;22.90;56.20;;;;;;4840734;29;20403;-85
2021/09/06 06:36:21;;;;;;;6.77;6.10;;;22.90;56.20;;;;;;4830248;29;20500;-86
2021/09/06 06:39:03;;;;;;;6.60;6.00;;;22.90;56.20;;;;;;4840608;29;20499;-85
2021/09/06 06:49:04;;;;;;;7.13;6.33;;;23.00;56.20;;;;;;4844165;29;20522;-84
2021/09/06 07:10:00;;;;;;;6.93;6.33;;;23.10;56.20;;;;;;4824610;29;20452;-84
2021/09/06 07:30:13;;;;;;;7.13;6.43;;;23.10;56.20;;;;;;4819715;29;20454;-89
2021/09/06 07:33:07;;;;;;;;;;;;;;;;;;;;;
2021/09/06 07:39:16;;;;;;;7.43;6.43;;;23.10;56.20;;;;;;4874450;29;20782;-87
2021/09/06 07:41:51;;;;;;;7.30;6.20;;;23.10;56.20;;;;;;4906408;29;20409;-87
2021/09/06 07:51:07;;;;;;;6.33;5.60;;;23.20;56.20;;;;;;4893017;29;20490;-86
2021/09/06 07:54:06;;;;;;;;;;;;;;;;;;;;;
2021/09/06 07:56:57;;;;;;;7.07;5.80;;;23.20;56.10;;;;;;4931405;29;20573;-86
2021/09/06 07:59:54;;;;;;;;;;;;;;;;;;;;;
2021/09/06 08:02:25;;;;;;;6.47;5.53;;;23.20;56.10;;;;;;4963879;29;20478;-86
2021/09/06 08:05:04;;;;;;;;;;;;;;;;;;;;;
2021/09/06 08:11:14;;;;;;;8.07;6.67;;;23.20;56.10;;;;;;5034258;28;20415;-86
2021/09/06 08:14:05;;;;;;;7.27;6.57;;;23.20;56.10;;;;;;5047803;28;20433;-87
2021/09/06 08:19:26;;;;;;;;;;;;;;;;;;;;;
2021/09/06 08:22:17;;;;;;;6.63;5.90;;;23.30;56.20;;;;;;5051409;28;20418;-85
2021/09/06 08:24:58;;;;;;;7.03;6.17;;;23.30;56.20;;;;;;5046624;28;20436;-86
2021/09/06 08:31:20;;;;;;;6.30;5.70;;;23.30;56.10;;;;;;5071111;28;20445;-87
2021/09/06 08:34:03;;;;;;;6.50;5.90;;;23.30;56.20;;;;;;5064323;28;20436;-86
2021/09/06 08:39:52;;;;;;;;;;;;;;;;;;;;;
2021/09/06 08:42:52;;;;;;;6.27;5.63;;;23.30;56.20;;;;;;5068237;28;20465;-86
2021/09/06 08:52:41;;;;;;;7.43;6.73;;;23.30;56.30;;;;;;4987556;28;20405;-86
2021/09/06 08:59:31;;;;;;;6.00;5.50;;;23.30;56.30;;;;;;4969752;28;20417;-85
2021/09/06 09:02:24;;;;;;;7.00;6.30;;;23.30;56.30;;;;;;4936041;29;20983;-85
2021/09/06 09:05:19;;;;;;;7.13;6.43;;;23.30;56.40;;;;;;4952349;29;20422;-84
2021/09/06 09:08:14;;;;;;;8.60;7.43;;;23.30;56.40;;;;;;4963218;29;20418;-83
2021/09/06 09:11:23;;;;;;;;;;;;;;;;;;;;;
2021/09/06 09:14:13;;;;;;;7.43;6.70;;;23.30;56.40;;;;;;4967891;29;20445;-84
2021/09/06 09:17:09;;;;;;;7.07;6.20;;;23.30;56.40;;;;;;4967541;28;20481;-86
2021/09/06 10:19:16;;;;;;;;;;;;;;;;;;;;;
2021/09/06 10:39:10;;;;;;;9.50;6.73;;;23.30;56.80;;;;;;4842745;29;20457;-85
2021/09/06 11:03:08;;;;;;;;;;;;;;;;;;;;;
2021/09/06 11:30:27;;;;;;;8.00;6.80;;;23.30;57.00;;;;;;4876612;29;20852;-88
2021/09/06 11:37:20;;;;;;;;;;;;;;;;;;;;;
2021/09/06 11:40:53;;;;;;;7.87;7.17;;;23.30;57.10;;;;;;4893038;29;20514;-88
2021/09/06 11:50:39;;;;;;;7.40;6.57;;;23.30;57.10;;;;;;4803231;29;20444;-87
2021/09/06 11:53:29;;;;;;;8.10;7.30;;;23.30;57.10;;;;;;4800102;30;20446;-87
2021/09/06 11:56:28;;;;;;;8.87;6.50;;;23.40;57.20;;;;;;4791995;30;20446;-87
2021/09/06 11:59:45;;;;;;;7.77;6.93;;;23.40;57.20;;;;;;4816107;29;20430;-87
2021/09/06 12:06:10;;;;;;;7.53;6.83;;;23.40;57.70;;;;;;4818402;29;20418;-86
2021/09/06 12:26:09;;;;;;;23.47;17.33;;;23.40;57.20;;;;;;4927654;28;20495;-88
2021/09/06 12:29:23;;;;;;;40.07;26.80;;;23.30;57.20;;;;;;4914388;29;20421;-89
2021/09/06 12:32:29;;;;;;;;;;;;;;;;;;;;;
2021/09/06 12:35:16;;;;;;;58.80;38.17;;;23.40;57.30;;;;;;4851920;29;20482;-88
2021/09/06 12:38:09;;;;;;;137.10;86.37;;;23.40;57.30;;;;;;4838752;29;20459;-88
2021/09/06 12:41:02;;;;;;;203.87;121.20;;;23.40;57.40;;;;;;4836495;29;20459;-87
2021/09/06 12:50:56;;;;;;;189.00;112.10;;;23.40;57.40;;;;;;4819572;29;21020;-88
2021/09/06 12:53:43;;;;;;;186.17;115.00;;;23.40;57.40;;;;;;4803512;29;20460;-89
2021/09/06 13:06:20;;;;;;;154.90;96.90;;;23.40;57.40;;;;;;4892612;29;20405;-88
2021/09/06 13:08:55;;;;;;;153.23;96.80;;;23.40;57.50;;;;;;4840888;29;20411;-88
2021/09/06 13:21:08;;;;;;;116.70;80.57;;;23.40;57.30;;;;;;4858850;29;20414;-88
2021/09/06 13:23:37;;;;;;;108.00;70.53;;;23.40;57.40;;;;;;4856141;29;20422;-88
2021/09/06 13:26:32;;;;;;;100.80;68.37;;;23.40;57.30;;;;;;4875619;29;20418;-88
2021/09/06 13:32:21;;;;;;;;;;;;;;;;;;;;;
2021/09/06 13:34:59;;;;;;;93.53;62.17;;;23.40;57.30;;;;;;4888805;29;20468;-89
2021/09/06 13:37:26;;;;;;;85.27;60.20;;;23.40;57.30;;;;;;4896369;29;20536;-88
2021/09/06 13:40:00;;;;;;;87.10;60.13;;;23.40;57.20;;;;;;4949725;29;20434;-88
2021/09/06 13:42:31;;;;;;;82.53;53.50;;;23.40;57.20;;;;;;4964965;29;20418;-88
2021/09/06 13:51:32;;;;;;;70.53;46.60;;;23.40;57.10;;;;;;4952136;28;20395;-88
2021/09/06 13:57:28;;;;;;;71.63;48.50;;;23.40;57.20;;;;;;4994986;28;20467;-88
2021/09/06 14:00:00;;;;;;;64.13;44.53;;;23.40;57.20;;;;;;4977547;28;20992;-88
2021/09/06 14:02:32;;;;;;;51.10;36.90;;;23.40;57.20;;;;;;4995071;28;20428;-88
2021/09/06 14:05:19;;;;;;;51.93;38.20;;;23.40;57.10;;;;;;5010435;28;20401;-88
2021/09/06 14:07:52;;;;;;;52.67;36.50;;;23.40;57.10;;;;;;4991857;28;20437;-88
2021/09/06 14:10:23;;;;;;;50.57;35.17;;;23.40;57.00;;;;;;4978312;28;20431;-88
2021/09/06 14:13:05;;;;;;;45.50;33.60;;;23.40;57.00;;;;;;5044466;28;20926;-87
2021/09/06 14:15:44;;;;;;;43.13;31.33;;;23.40;57.00;;;;;;5056088;28;20386;-87
2021/09/06 14:18:39;;;;;;;42.97;31.23;;;23.40;56.90;;;;;;5036810;28;20446;-88
2021/09/06 14:21:10;;;;;;;41.93;29.80;;;23.40;56.80;;;;;;5047820;28;20432;-87
2021/09/06 14:23:40;;;;;;;41.73;29.00;;;23.40;56.90;;;;;;5068809;28;20551;-87
2021/09/06 14:26:09;;;;;;;33.77;27.30;;;23.40;56.90;;;;;;5064531;28;20503;-87
2021/09/06 14:28:42;;;;;;;35.30;27.80;;;23.40;57.00;;;;;;5075548;28;20412;-87
2021/09/06 14:31:19;;;;;;;41.07;28.07;;;23.40;56.80;;;;;;5073312;28;20416;-88
2021/09/06 14:33:54;;;;;;;35.60;25.97;;;23.40;56.80;;;;;;5053986;28;20440;-87
2021/09/06 14:36:56;;;;;;;32.67;23.97;;;23.40;56.80;;;;;;5053600;28;20432;-87
2021/09/06 14:39:26;;;;;;;29.40;23.27;;;23.40;56.80;;;;;;5040315;28;20405;-87
2021/09/06 14:42:12;;;;;;;32.47;25.00;;;23.40;56.80;;;;;;5071927;28;20405;-88
2021/09/06 14:44:47;;;;;;;34.00;24.37;;;23.40;56.80;;;;;;5071460;28;20817;-87
2021/09/06 14:57:34;;;;;;;23.23;19.33;;;23.40;56.80;;;;;;5009472;28;20604;-87
2021/09/06 15:00:18;;;;;;;21.97;17.47;;;23.40;56.90;;;;;;4993607;28;20444;-87
2021/09/06 15:02:59;;;;;;;20.97;17.00;;;23.40;56.90;;;;;;5010030;28;20428;-87
2021/09/06 15:06:09;;;;;;;;;;;;;;;;;;;;;
2021/09/06 15:08:53;;;;;;;22.13;16.93;;;23.40;56.80;;;;;;5009507;28;20597;-87
2021/09/06 15:11:24;;;;;;;19.13;16.50;;;23.40;56.80;;;;;;5008478;28;20421;-87
2021/09/06 15:13:58;;;;;;;18.33;14.80;;;23.40;56.80;;;;;;5009577;28;20425;-87
2021/09/06 15:16:34;;;;;;;16.77;14.37;;;23.40;56.80;;;;;;5009610;28;20955;-87
2021/09/06 15:19:11;;;;;;;15.43;12.90;;;23.40;56.70;;;;;;5009850;28;20423;-87
2021/09/06 15:21:46;;;;;;;18.30;14.53;;;23.40;56.70;;;;;;4993419;28;20435;-88
2021/09/06 15:24:24;;;;;;;16.27;13.70;;;23.40;56.70;;;;;;5020970;28;20428;-89
2021/09/06 15:27:13;;;;;;;16.83;13.50;;;23.40;56.70;;;;;;5076175;28;20447;-88
2021/09/06 15:30:22;;;;;;;13.20;11.47;;;23.40;56.70;;;;;;5052102;28;20429;-88
2021/09/06 15:33:10;;;;;;;15.40;13.23;;;23.40;56.70;;;;;;5052360;28;20443;-88
2021/09/06 15:59:12;;;;;;;11.50;9.00;;;23.30;56.60;;;;;;5050444;28;20799;-86
2021/09/06 16:01:48;;;;;;;11.03;8.57;;;23.30;56.60;;;;;;5052290;28;20405;-87
2021/09/06 16:04:17;;;;;;;9.67;8.70;;;23.30;56.60;;;;;;5051563;28;20432;-87
2021/09/06 16:06:46;;;;;;;10.07;8.07;;;23.30;56.60;;;;;;5051767;28;20445;-87
2021/09/06 16:09:19;;;;;;;9.80;8.40;;;23.30;56.60;;;;;;5051191;28;20429;-88
2021/09/06 16:11:48;;;;;;;9.57;8.60;;;23.30;56.60;;;;;;5052963;28;20407;-87
2021/09/06 16:18:11;;;;;;;8.83;7.93;;;23.40;56.50;;;;;;5070421;28;20460;-87
2021/09/06 16:21:31;;;;;;;9.07;7.67;;;23.40;56.50;;;;;;5070075;28;20386;-87
2021/09/06 16:24:06;;;;;;;7.77;6.97;;;23.30;56.50;;;;;;5063286;28;20414;-87
2021/09/06 16:36:54;;;;;;;8.83;7.10;;;23.30;56.40;;;;;;4989180;28;20456;-87
2021/09/06 16:39:45;;;;;;;7.20;6.50;;;23.30;56.50;;;;;;4987798;28;20464;-87
2021/09/06 16:55:51;;;;;;;;;;;;;;;;;;;;;
2021/09/06 17:06:08;;;;;;;;;;;;;;;;;;;;;
2021/09/06 18:55:10;;;;;;;8.07;7.27;;;23.20;57.10;;;;;;4883448;29;20427;-83
2021/09/06 19:01:11;;;;;;;8.27;6.10;;;23.20;57.20;;;;;;4920015;29;20481;-83
2021/09/06 19:03:39;;;;;;;7.47;6.80;;;23.20;57.30;;;;;;4897208;29;20959;-83
2021/09/06 19:13:14;;;;;;;6.83;6.13;;;23.20;57.20;;;;;;4920638;29;20470;-83
2021/09/06 19:16:27;;;;;;;8.63;7.30;;;23.20;57.30;;;;;;4977406;28;20414;-83
2021/09/06 19:19:03;;;;;;;7.30;6.60;;;23.20;57.30;;;;;;4977463;28;20426;-83
2021/09/06 19:22:01;;;;;;;7.70;6.60;;;23.20;57.30;;;;;;4978214;28;20402;-83
2021/09/06 19:25:11;;;;;;;7.43;5.90;;;23.20;57.30;;;;;;4961739;29;20419;-83
2021/09/06 19:28:10;;;;;;;6.87;6.07;;;23.20;57.30;;;;;;4988339;28;20407;-82
2021/09/06 19:55:20;;;;;;;;;;;;;;;;;;;;;
2021/09/06 20:12:22;;;;;;;;;;;;;;;;;;;;;
2021/09/06 20:18:23;;;;;;;6.40;5.70;;;23.10;57.50;;;;;;4863532;29;20477;-83
2021/09/06 20:28:02;;;;;;;7.13;6.40;;;23.20;57.60;;;;;;4882354;29;20374;-82
2021/09/06 20:31:33;;;;;;;7.70;6.87;;;23.20;57.70;;;;;;4881694;29;20434;-82
2021/09/06 20:34:00;;;;;;;7.00;6.30;;;23.20;57.60;;;;;;4880738;29;20432;-82
2021/09/06 20:39:30;;;;;;;7.63;6.83;;;23.20;57.60;;;;;;4882829;29;20411;-81
2021/09/06 20:41:59;;;;;;;5.90;5.30;;;23.20;57.60;;;;;;4867191;29;20446;-81
2021/09/06 20:44:27;;;;;;;6.93;6.13;;;23.20;57.60;;;;;;4900587;29;20428;-81
2021/09/06 20:47:02;;;;;;;6.63;6.03;;;23.20;57.60;;;;;;4919767;29;20483;-81
2021/09/06 20:49:33;;;;;;;8.37;6.97;;;23.20;57.60;;;;;;4920085;29;20866;-81
2021/09/06 20:52:03;;;;;;;6.60;6.00;;;23.20;57.60;;;;;;4945233;28;20437;-81
2021/09/06 20:54:32;;;;;;;7.07;6.37;;;23.20;57.60;;;;;;4996356;28;20401;-81
2021/09/06 20:57:00;;;;;;;7.17;6.43;;;23.20;57.60;;;;;;5006441;28;20484;-80
2021/09/06 20:59:44;;;;;;;7.23;6.53;;;23.20;57.60;;;;;;5038884;28;20472;-81
2021/09/06 21:02:12;;;;;;;6.57;5.70;;;23.30;57.60;;;;;;5039781;28;20472;-81
2021/09/06 21:04:41;;;;;;;8.53;6.30;;;23.20;57.60;;;;;;5040215;28;20415;-81
2021/09/06 21:07:07;;;;;;;10.17;6.23;;;23.20;57.60;;;;;;5040016;28;20437;-81
2021/09/06 21:10:29;;;;;;;7.23;6.53;;;23.30;57.70;;;;;;5056747;28;20406;-82
2021/09/06 21:12:59;;;;;;;7.70;6.43;;;23.30;57.70;;;;;;5057376;28;20186;-81
2021/09/06 21:15:27;;;;;;;7.20;6.50;;;23.20;57.70;;;;;;5057042;28;20381;-82
2021/09/06 21:17:56;;;;;;;6.80;6.03;;;23.20;57.70;;;;;;5039564;28;20438;-82
2021/09/06 21:20:24;;;;;;;8.50;6.60;;;23.20;57.70;;;;;;5057756;28;20421;-82
2021/09/06 21:22:55;;;;;;;6.70;6.10;;;23.20;57.70;;;;;;5039246;28;20430;-82
2021/09/06 21:25:40;;;;;;;6.97;6.37;;;23.20;57.60;;;;;;5051029;28;20394;-80
2021/09/06 21:28:10;;;;;;;6.80;6.20;;;23.30;57.70;;;;;;5047683;28;20413;-80
2021/09/06 21:38:09;;;;;;;6.63;6.03;;;23.20;57.70;;;;;;4976035;28;20466;-81
2021/09/06 21:44:35;;;;;;;7.63;6.50;;;23.20;57.80;;;;;;4937899;29;20492;-81
2021/09/06 21:50:37;;;;;;;8.10;6.63;;;23.20;57.90;;;;;;4937527;29;20399;-81
2021/09/06 21:53:12;;;;;;;7.27;6.30;;;23.10;57.90;;;;;;4919469;29;20491;-80
2021/09/06 21:56:09;;;;;;;6.03;5.53;;;23.10;58.40;;;;;;4905711;29;20435;-81
2021/09/06 21:58:39;;;;;;;6.93;6.23;;;23.20;57.90;;;;;;4936938;29;20448;-81
2021/09/06 22:01:10;;;;;;;8.13;6.27;;;23.20;57.90;;;;;;4920370;29;20412;-80
2021/09/06 22:03:39;;;;;;;7.07;6.37;;;23.20;57.90;;;;;;4920136;29;20432;-81
2021/09/06 22:09:31;;;;;;;7.30;5.90;;;23.20;57.90;;;;;;4936426;29;20478;-80
2021/09/06 22:12:16;;;;;;;6.23;5.63;;;23.20;58.40;;;;;;4979810;28;20442;-83
2021/09/06 22:21:12;;;;;;;7.07;6.37;;;23.20;57.90;;;;;;4953332;29;20416;-83
2021/09/06 22:23:48;;;;;;;6.80;6.10;;;23.10;57.90;;;;;;4940272;29;20422;-83
2021/09/06 22:26:35;;;;;;;7.00;5.80;;;23.20;58.00;;;;;;4941723;29;20511;-83
2021/09/06 22:29:07;;;;;;;7.93;6.40;;;23.20;58.00;;;;;;4942464;29;20869;-83
2021/09/06 22:32:04;;;;;;;8.27;6.20;;;23.20;58.00;;;;;;4942365;29;20414;-83
2021/09/06 22:34:37;;;;;;;7.50;6.63;;;23.20;58.00;;;;;;4957254;29;20408;-83
2021/09/06 22:37:09;;;;;;;6.50;5.90;;;23.20;58.00;;;;;;4942609;29;20546;-83
2021/09/06 22:39:38;;;;;;;6.87;6.20;;;23.20;58.00;;;;;;4942034;29;20431;-83
2021/09/06 22:42:12;;;;;;;7.30;6.23;;;23.20;58.00;;;;;;4956674;29;20419;-83
2021/09/06 22:44:47;;;;;;;7.10;6.40;;;23.20;58.00;;;;;;4941173;29;20433;-83
2021/09/06 22:51:03;;;;;;;6.80;5.97;;;23.20;58.00;;;;;;4901493;29;20421;-83
2021/09/06 22:53:35;;;;;;;6.70;6.10;;;23.20;58.00;;;;;;4908327;29;20849;-83
2021/09/06 23:02:56;;;;;;;5.70;5.17;;;23.20;58.10;;;;;;4958547;28;20860;-83
2021/09/06 23:06:28;;;;;;;6.40;5.80;;;23.20;58.70;;;;;;4957106;29;20454;-83
2021/09/06 23:12:22;;;;;;;6.17;5.57;;;23.10;58.10;;;;;;4955285;29;20524;-82
2021/09/06 23:21:40;;;;;;;5.73;5.23;;;23.10;58.10;;;;;;4955743;29;20426;-83
2021/09/06 23:24:18;;;;;;;6.03;5.43;;;23.10;58.10;;;;;;4941906;29;20450;-83
2021/09/06 23:27:06;;;;;;;5.97;5.37;;;23.10;58.10;;;;;;4948817;28;20431;-84
2021/09/06 23:36:41;;;;;;;6.20;5.50;;;23.10;58.10;;;;;;4904466;29;20546;-83
2021/09/06 23:39:56;;;;;;;5.80;5.30;;;23.10;58.20;;;;;;4883996;29;20429;-83
2021/09/06 23:42:23;;;;;;;6.83;5.97;;;23.10;58.10;;;;;;4955650;29;20403;-83
2021/09/06 23:45:06;;;;;;;6.63;5.77;;;23.10;58.20;;;;;;4956857;29;20387;-83
2021/09/06 23:47:56;;;;;;;6.63;5.93;;;23.10;58.10;;;;;;4953980;29;20421;-83
2021/09/06 23:50:39;;;;;;;5.60;5.10;;;23.10;58.10;;;;;;4974866;29;20430;-83
2021/09/06 23:53:11;;;;;;;6.10;5.60;;;23.10;58.10;;;;;;4976222;29;20446;-83
2021/09/06 23:59:20;;;;;;;5.53;5.03;;;23.10;58.10;;;;;;4968971;29;20454;-85
